sensor_id;sensor_type;location;lat;lon;timestamp;temperature;humidity
3360;DHT22;1693;49.602;11.046;2024-01-15T00:00:43;-3.30;99.90
3360;DHT22;1693;49.602;11.046;2024-01-15T00:03:11;-3.30;99.90
3360;DHT22;1693;49.602;11.046;2024-01-15T00:05:39;-3.40;99.90
3360;DHT22;1693;49.602;11.046;2024-01-15T00:08:07;-3.30;99.90
3360;DHT22;1693;49.602;11.046;2024-01-15T00:10:35;-3.30;99.90
3360;DHT22;1693;49.602;11.046;2024-01-15T00:13:03;-3.30;99.90
3360;DHT22;1693;49.602;11.046;2024-01-15T00:15:31;-3.20;99.90
3360;DHT22;1693;49.602;11.046;2024-01-15T00:18:00;-3.50;99.90
3360;DHT22;1693;49.602;11.046;2024-01-15T00:20:27;-3.40;99.90
3360;DHT22;1693;49.602;11.046;2024-01-15T00:22:56;-3.40;99.90
3360;DHT22;1693;49.602;11.046;2024-01-15T00:25:24;-3.30;99.90
3360;DHT22;1693;49.602;11.046;2024-01-15T00:27:53;-3.30;99.90
3360;DHT22;1693;49.602;11.046;2024-01-15T00:30:21;-3.30;99.90
3360;DHT22;1693;49.602;11.046;2024-01-15T00:32:48;-3.30;99.90
3360;DHT22;1693;49.602;11.046;2024-01-15T00:35:17;-3.40;99.90
3360;DHT22;1693;49.602;11.046;2024-01-15T00:37:47;-3.40;99.90
3360;DHT22;1693;49.602;11.046;2024-01-15T00:40:18;-3.40;99.90
3360;DHT22;1693;49.602;11.046;2024-01-15T00:42:45;-3.40;99.90
3360;DHT22;1693;49.602;11.046;2024-01-15T00:45:14;-3.40;99.90
3360;DHT22;1693;49.602;11.046;2024-01-15T00:47:43;-3.40;99.90
3360;DHT22;1693;49.602;11.046;2024-01-15T00:50:11;-3.40;99.90
3360;DHT22;1693;49.602;11.046;2024-01-15T00:52:38;-3.30;99.90
3360;DHT22;1693;49.602;11.046;2024-01-15T00:55:08;-3.20;99.90
3360;DHT22;1693;49.602;11.046;2024-01-15T00:57:37;-3.20;99.90
3360;DHT22;1693;49.602;11.046;2024-01-15T01:00:06;-3.10;99.90
3360;DHT22;1693;49.602;11.046;2024-01-15T01:02:34;-3.10;99.90
3360;DHT22;1693;49.602;11.046;2024-01-15T01:05:02;-3.00;99.90
3360;DHT22;1693;49.602;11.046;2024-01-15T01:07:31;-3.10;99.90
3360;DHT22;1693;49.602;11.046;2024-01-15T01:09:58;-3.10;99.90
3360;DHT22;1693;49.602;11.046;2024-01-15T01:12:25;-3.10;99.90
3360;DHT22;1693;49.602;11.046;2024-01-15T01:14:54;-2.90;99.90
3360;DHT22;1693;49.602;11.046;2024-01-15T01:17:22;-3.00;99.90
3360;DHT22;1693;49.602;11.046;2024-01-15T01:19:50;-3.00;99.90
3360;DHT22;1693;49.602;11.046;2024-01-15T01:22:17;-2.90;99.90
3360;DHT22;1693;49.602;11.046;2024-01-15T01:24:45;-2.80;99.90
3360;DHT22;1693;49.602;11.046;2024-01-15T01:27:12;-2.90;99.90
3360;DHT22;1693;49.602;11.046;2024-01-15T01:29:39;-2.90;99.90
3360;DHT22;1693;49.602;11.046;2024-01-15T01:32:08;-2.90;99.90
3360;DHT22;1693;49.602;11.046;2024-01-15T01:34:40;-2.90;99.90
3360;DHT22;1693;49.602;11.046;2024-01-15T01:37:08;-2.90;99.90
3360;DHT22;1693;49.602;11.046;2024-01-15T01:39:36;-2.90;99.90
3360;DHT22;1693;49.602;11.046;2024-01-15T01:42:04;-2.90;99.90
3360;DHT22;1693;49.602;11.046;2024-01-15T01:44:32;-2.80;99.90
3360;DHT22;1693;49.602;11.046;2024-01-15T01:47:00;-2.90;99.90
3360;DHT22;1693;49.602;11.046;2024-01-15T01:49:29;-2.80;99.90
3360;DHT22;1693;49.602;11.046;2024-01-15T01:51:58;-2.80;99.90
3360;DHT22;1693;49.602;11.046;2024-01-15T01:54:26;-2.70;99.90
3360;DHT22;1693;49.602;11.046;2024-01-15T01:56:55;-2.70;99.90
3360;DHT22;1693;49.602;11.046;2024-01-15T01:59:26;-2.70;99.90
3360;DHT22;1693;49.602;11.046;2024-01-15T02:01:54;-2.80;99.90
3360;DHT22;1693;49.602;11.046;2024-01-15T02:04:24;-2.80;99.90
3360;DHT22;1693;49.602;11.046;2024-01-15T02:06:54;-2.60;99.90
3360;DHT22;1693;49.602;11.046;2024-01-15T02:09:21;-2.80;99.90
3360;DHT22;1693;49.602;11.046;2024-01-15T02:11:48;-2.60;99.90
3360;DHT22;1693;49.602;11.046;2024-01-15T02:14:16;-2.70;99.90
3360;DHT22;1693;49.602;11.046;2024-01-15T02:16:43;-2.60;99.90
3360;DHT22;1693;49.602;11.046;2024-01-15T02:19:15;-2.50;99.90
3360;DHT22;1693;49.602;11.046;2024-01-15T02:21:45;-2.50;99.90
3360;DHT22;1693;49.602;11.046;2024-01-15T02:24:19;-2.40;99.90
3360;DHT22;1693;49.602;11.046;2024-01-15T02:26:48;-2.50;99.90
3360;DHT22;1693;49.602;11.046;2024-01-15T02:29:15;-2.50;99.90
3360;DHT22;1693;49.602;11.046;2024-01-15T02:31:43;-2.50;99.90
3360;DHT22;1693;49.602;11.046;2024-01-15T02:34:10;-2.40;99.90
3360;DHT22;1693;49.602;11.046;2024-01-15T02:36:37;-2.30;99.90
3360;DHT22;1693;49.602;11.046;2024-01-15T02:39:05;-2.30;99.90
3360;DHT22;1693;49.602;11.046;2024-01-15T02:41:33;-2.30;99.90
3360;DHT22;1693;49.602;11.046;2024-01-15T02:44:00;-2.20;99.90
3360;DHT22;1693;49.602;11.046;2024-01-15T02:46:27;-2.10;99.90
3360;DHT22;1693;49.602;11.046;2024-01-15T02:48:55;-2.20;99.90
3360;DHT22;1693;49.602;11.046;2024-01-15T02:51:22;-2.10;99.90
3360;DHT22;1693;49.602;11.046;2024-01-15T02:53:50;-2.10;99.90
3360;DHT22;1693;49.602;11.046;2024-01-15T02:56:17;-2.20;99.90
3360;DHT22;1693;49.602;11.046;2024-01-15T02:58:46;-2.20;99.90
3360;DHT22;1693;49.602;11.046;2024-01-15T03:01:13;-2.20;99.90
3360;DHT22;1693;49.602;11.046;2024-01-15T03:03:40;-2.20;99.90
3360;DHT22;1693;49.602;11.046;2024-01-15T03:06:08;-2.10;99.90
3360;DHT22;1693;49.602;11.046;2024-01-15T03:08:35;-2.10;99.90
3360;DHT22;1693;49.602;11.046;2024-01-15T03:11:03;-2.10;99.90
3360;DHT22;1693;49.602;11.046;2024-01-15T03:13:30;-2.10;99.90
3360;DHT22;1693;49.602;11.046;2024-01-15T03:16:00;-2.00;99.90
3360;DHT22;1693;49.602;11.046;2024-01-15T03:18:28;-2.00;99.90
3360;DHT22;1693;49.602;11.046;2024-01-15T03:20:55;-2.00;99.90
3360;DHT22;1693;49.602;11.046;2024-01-15T03:23:27;-2.00;99.90
3360;DHT22;1693;49.602;11.046;2024-01-15T03:25:55;-2.00;99.90
3360;DHT22;1693;49.602;11.046;2024-01-15T03:28:22;-2.00;99.90
3360;DHT22;1693;49.602;11.046;2024-01-15T03:30:50;-2.00;99.90
3360;DHT22;1693;49.602;11.046;2024-01-15T03:33:19;-1.90;99.90
3360;DHT22;1693;49.602;11.046;2024-01-15T03:35:48;-1.80;99.90
3360;DHT22;1693;49.602;11.046;2024-01-15T03:38:16;-1.80;99.90
3360;DHT22;1693;49.602;11.046;2024-01-15T03:40:45;-1.80;99.90
3360;DHT22;1693;49.602;11.046;2024-01-15T03:43:13;-1.80;99.90
3360;DHT22;1693;49.602;11.046;2024-01-15T03:45:41;-1.80;99.90
3360;DHT22;1693;49.602;11.046;2024-01-15T03:48:11;-1.80;99.90
3360;DHT22;1693;49.602;11.046;2024-01-15T03:50:42;-1.80;99.90
3360;DHT22;1693;49.602;11.046;2024-01-15T03:53:12;-1.80;99.90
3360;DHT22;1693;49.602;11.046;2024-01-15T03:55:42;-1.80;99.90
3360;DHT22;1693;49.602;11.046;2024-01-15T03:58:11;-1.70;99.90
3360;DHT22;1693;49.602;11.046;2024-01-15T04:00:41;-1.70;99.90
3360;DHT22;1693;49.602;11.046;2024-01-15T04:03:09;-1.60;99.90
3360;DHT22;1693;49.602;11.046;2024-01-15T04:05:36;-1.70;99.90
3360;DHT22;1693;49.602;11.046;2024-01-15T04:08:06;-1.70;99.90
3360;DHT22;1693;49.602;11.046;2024-01-15T04:10:36;-1.70;99.90
3360;DHT22;1693;49.602;11.046;2024-01-15T04:13:03;-1.60;99.90
3360;DHT22;1693;49.602;11.046;2024-01-15T04:15:31;-1.60;99.90
3360;DHT22;1693;49.602;11.046;2024-01-15T04:17:58;-1.60;99.90
3360;DHT22;1693;49.602;11.046;2024-01-15T04:20:27;-1.70;99.90
3360;DHT22;1693;49.602;11.046;2024-01-15T04:22:54;-1.60;99.90
3360;DHT22;1693;49.602;11.046;2024-01-15T04:27:50;-1.50;99.90
3360;DHT22;1693;49.602;11.046;2024-01-15T04:30:18;-1.60;99.90
3360;DHT22;1693;49.602;11.046;2024-01-15T04:32:45;-1.60;99.90
3360;DHT22;1693;49.602;11.046;2024-01-15T04:35:12;-1.50;99.90
3360;DHT22;1693;49.602;11.046;2024-01-15T04:37:40;-1.50;99.90
3360;DHT22;1693;49.602;11.046;2024-01-15T04:40:09;-1.40;99.90
3360;DHT22;1693;49.602;11.046;2024-01-15T04:42:37;-1.40;99.90
3360;DHT22;1693;49.602;11.046;2024-01-15T04:45:06;-1.40;99.90
3360;DHT22;1693;49.602;11.046;2024-01-15T04:47:33;-1.40;99.90
3360;DHT22;1693;49.602;11.046;2024-01-15T04:50:02;-1.40;99.90
3360;DHT22;1693;49.602;11.046;2024-01-15T04:52:29;-1.40;99.90
3360;DHT22;1693;49.602;11.046;2024-01-15T04:57:24;-1.40;99.90
3360;DHT22;1693;49.602;11.046;2024-01-15T04:59:53;-1.40;99.90
3360;DHT22;1693;49.602;11.046;2024-01-15T05:02:20;-1.40;99.90
3360;DHT22;1693;49.602;11.046;2024-01-15T05:04:48;-1.30;99.90
3360;DHT22;1693;49.602;11.046;2024-01-15T05:07:15;-1.30;99.90
3360;DHT22;1693;49.602;11.046;2024-01-15T05:09:42;-1.30;99.90
3360;DHT22;1693;49.602;11.046;2024-01-15T05:12:09;-1.30;99.90
3360;DHT22;1693;49.602;11.046;2024-01-15T05:14:37;-1.40;99.90
3360;DHT22;1693;49.602;11.046;2024-01-15T05:17:05;-1.30;99.90
3360;DHT22;1693;49.602;11.046;2024-01-15T05:19:32;-1.30;99.90
3360;DHT22;1693;49.602;11.046;2024-01-15T05:22:00;-1.20;99.90
3360;DHT22;1693;49.602;11.046;2024-01-15T05:24:27;-1.20;99.90
3360;DHT22;1693;49.602;11.046;2024-01-15T05:26:54;-1.30;99.90
3360;DHT22;1693;49.602;11.046;2024-01-15T05:29:21;-1.30;99.90
3360;DHT22;1693;49.602;11.046;2024-01-15T05:31:49;-1.30;99.90
3360;DHT22;1693;49.602;11.046;2024-01-15T05:34:17;-1.30;99.90
3360;DHT22;1693;49.602;11.046;2024-01-15T05:36:47;-1.30;99.90
3360;DHT22;1693;49.602;11.046;2024-01-15T05:39:34;-1.30;99.90
3360;DHT22;1693;49.602;11.046;2024-01-15T05:42:11;-1.20;99.90
3360;DHT22;1693;49.602;11.046;2024-01-15T05:44:38;-1.30;99.90
3360;DHT22;1693;49.602;11.046;2024-01-15T05:47:05;-1.30;99.90
3360;DHT22;1693;49.602;11.046;2024-01-15T05:49:34;-1.20;99.90
3360;DHT22;1693;49.602;11.046;2024-01-15T05:52:01;-1.20;99.90
3360;DHT22;1693;49.602;11.046;2024-01-15T05:54:29;-1.30;99.90
3360;DHT22;1693;49.602;11.046;2024-01-15T05:56:56;-1.20;99.90
3360;DHT22;1693;49.602;11.046;2024-01-15T05:59:23;-1.20;99.90
3360;DHT22;1693;49.602;11.046;2024-01-15T06:01:51;-1.30;99.90
3360;DHT22;1693;49.602;11.046;2024-01-15T06:04:18;-1.20;99.90
3360;DHT22;1693;49.602;11.046;2024-01-15T06:06:50;-1.20;99.90
3360;DHT22;1693;49.602;11.046;2024-01-15T06:09:18;-1.30;99.90
3360;DHT22;1693;49.602;11.046;2024-01-15T06:11:48;-1.30;99.90
3360;DHT22;1693;49.602;11.046;2024-01-15T06:14:19;-1.30;99.90
3360;DHT22;1693;49.602;11.046;2024-01-15T06:16:48;-1.30;99.90
3360;DHT22;1693;49.602;11.046;2024-01-15T06:19:15;-1.30;99.90
3360;DHT22;1693;49.602;11.046;2024-01-15T06:21:43;-1.40;99.90
3360;DHT22;1693;49.602;11.046;2024-01-15T06:24:11;-1.40;99.90
3360;DHT22;1693;49.602;11.046;2024-01-15T06:26:39;-1.30;99.90
3360;DHT22;1693;49.602;11.046;2024-01-15T06:29:06;-1.30;99.90
3360;DHT22;1693;49.602;11.046;2024-01-15T06:31:33;-1.30;99.90
3360;DHT22;1693;49.602;11.046;2024-01-15T06:34:01;-1.30;99.90
3360;DHT22;1693;49.602;11.046;2024-01-15T06:36:28;-1.30;99.90
3360;DHT22;1693;49.602;11.046;2024-01-15T06:38:55;-1.40;99.90
3360;DHT22;1693;49.602;11.046;2024-01-15T06:41:24;-1.40;99.90
3360;DHT22;1693;49.602;11.046;2024-01-15T06:43:51;-1.40;99.90
3360;DHT22;1693;49.602;11.046;2024-01-15T06:46:20;-1.40;99.90
3360;DHT22;1693;49.602;11.046;2024-01-15T06:48:49;-1.30;99.90
3360;DHT22;1693;49.602;11.046;2024-01-15T06:51:16;-1.30;99.90
3360;DHT22;1693;49.602;11.046;2024-01-15T06:53:43;-1.30;99.90
3360;DHT22;1693;49.602;11.046;2024-01-15T06:56:11;-1.40;99.90
3360;DHT22;1693;49.602;11.046;2024-01-15T06:58:39;-1.30;99.90
3360;DHT22;1693;49.602;11.046;2024-01-15T07:01:06;-1.30;99.90
3360;DHT22;1693;49.602;11.046;2024-01-15T07:03:34;-1.20;99.90
3360;DHT22;1693;49.602;11.046;2024-01-15T07:06:01;-1.20;99.90
3360;DHT22;1693;49.602;11.046;2024-01-15T07:08:28;-1.20;99.90
3360;DHT22;1693;49.602;11.046;2024-01-15T07:10:55;-1.10;99.90
3360;DHT22;1693;49.602;11.046;2024-01-15T07:13:23;-1.20;99.90
3360;DHT22;1693;49.602;11.046;2024-01-15T07:15:52;-1.20;99.90
3360;DHT22;1693;49.602;11.046;2024-01-15T07:18:19;-1.20;99.90
3360;DHT22;1693;49.602;11.046;2024-01-15T07:20:46;-1.30;99.90
3360;DHT22;1693;49.602;11.046;2024-01-15T07:23:14;-1.40;99.90
3360;DHT22;1693;49.602;11.046;2024-01-15T07:25:42;-1.30;99.90
3360;DHT22;1693;49.602;11.046;2024-01-15T07:28:09;-1.20;99.90
3360;DHT22;1693;49.602;11.046;2024-01-15T07:30:36;-1.20;99.90
3360;DHT22;1693;49.602;11.046;2024-01-15T07:33:06;-1.20;99.90
3360;DHT22;1693;49.602;11.046;2024-01-15T07:35:32;-1.20;99.90
3360;DHT22;1693;49.602;11.046;2024-01-15T07:37:59;-1.30;99.90
3360;DHT22;1693;49.602;11.046;2024-01-15T07:40:27;-1.30;99.90
3360;DHT22;1693;49.602;11.046;2024-01-15T07:42:54;-1.30;99.90
3360;DHT22;1693;49.602;11.046;2024-01-15T07:45:21;-1.20;99.90
3360;DHT22;1693;49.602;11.046;2024-01-15T07:47:48;-1.30;99.90
3360;DHT22;1693;49.602;11.046;2024-01-15T07:50:18;-1.30;99.90
3360;DHT22;1693;49.602;11.046;2024-01-15T07:52:45;-1.20;99.90
3360;DHT22;1693;49.602;11.046;2024-01-15T07:55:12;-1.10;99.90
3360;DHT22;1693;49.602;11.046;2024-01-15T07:57:39;-1.30;99.90
3360;DHT22;1693;49.602;11.046;2024-01-15T08:00:07;-1.30;99.90
3360;DHT22;1693;49.602;11.046;2024-01-15T08:02:34;-1.20;99.90
3360;DHT22;1693;49.602;11.046;2024-01-15T08:05:02;-1.20;99.90
3360;DHT22;1693;49.602;11.046;2024-01-15T08:07:30;-1.20;99.90
3360;DHT22;1693;49.602;11.046;2024-01-15T08:09:57;-1.20;99.90
3360;DHT22;1693;49.602;11.046;2024-01-15T08:12:24;-1.30;99.90
3360;DHT22;1693;49.602;11.046;2024-01-15T08:14:52;-1.40;99.90
3360;DHT22;1693;49.602;11.046;2024-01-15T08:17:20;-1.30;99.90
3360;DHT22;1693;49.602;11.046;2024-01-15T08:19:47;-1.30;99.90
3360;DHT22;1693;49.602;11.046;2024-01-15T08:22:14;-1.30;99.90
3360;DHT22;1693;49.602;11.046;2024-01-15T08:24:44;-1.30;99.90
3360;DHT22;1693;49.602;11.046;2024-01-15T08:27:11;-1.30;99.90
3360;DHT22;1693;49.602;11.046;2024-01-15T08:29:38;-1.20;99.90
3360;DHT22;1693;49.602;11.046;2024-01-15T08:32:06;-1.10;99.90
3360;DHT22;1693;49.602;11.046;2024-01-15T08:34:33;-1.20;99.90
3360;DHT22;1693;49.602;11.046;2024-01-15T08:37:00;-1.30;99.90
3360;DHT22;1693;49.602;11.046;2024-01-15T08:39:28;-1.20;99.90
3360;DHT22;1693;49.602;11.046;2024-01-15T08:41:56;-1.20;99.90
3360;DHT22;1693;49.602;11.046;2024-01-15T08:44:24;-1.10;99.90
3360;DHT22;1693;49.602;11.046;2024-01-15T08:46:51;-1.10;99.90
3360;DHT22;1693;49.602;11.046;2024-01-15T08:49:18;-0.90;99.90
3360;DHT22;1693;49.602;11.046;2024-01-15T08:51:46;-0.80;99.90
3360;DHT22;1693;49.602;11.046;2024-01-15T08:54:14;-0.80;99.90
3360;DHT22;1693;49.602;11.046;2024-01-15T08:56:41;-0.70;99.90
3360;DHT22;1693;49.602;11.046;2024-01-15T08:59:09;-0.70;99.90
3360;DHT22;1693;49.602;11.046;2024-01-15T09:01:38;-1.00;99.90
3360;DHT22;1693;49.602;11.046;2024-01-15T09:04:05;-0.90;99.90
3360;DHT22;1693;49.602;11.046;2024-01-15T09:06:32;-0.90;99.90
3360;DHT22;1693;49.602;11.046;2024-01-15T09:08:59;-0.70;99.90
3360;DHT22;1693;49.602;11.046;2024-01-15T09:11:27;-0.70;99.90
3360;DHT22;1693;49.602;11.046;2024-01-15T09:13:54;-0.70;99.90
3360;DHT22;1693;49.602;11.046;2024-01-15T09:16:22;-0.80;99.90
3360;DHT22;1693;49.602;11.046;2024-01-15T09:18:49;-0.70;99.90
3360;DHT22;1693;49.602;11.046;2024-01-15T09:21:18;-0.60;99.90
3360;DHT22;1693;49.602;11.046;2024-01-15T09:23:48;-0.50;99.90
3360;DHT22;1693;49.602;11.046;2024-01-15T09:26:18;-0.40;99.90
3360;DHT22;1693;49.602;11.046;2024-01-15T09:29:05;-0.30;99.90
3360;DHT22;1693;49.602;11.046;2024-01-15T09:31:34;-0.20;99.90
3360;DHT22;1693;49.602;11.046;2024-01-15T09:34:01;-0.40;99.90
3360;DHT22;1693;49.602;11.046;2024-01-15T09:36:28;-0.30;99.90
3360;DHT22;1693;49.602;11.046;2024-01-15T09:38:55;-0.30;99.90
3360;DHT22;1693;49.602;11.046;2024-01-15T09:41:23;-0.30;99.90
3360;DHT22;1693;49.602;11.046;2024-01-15T09:43:52;-0.20;99.90
3360;DHT22;1693;49.602;11.046;2024-01-15T09:46:21;-0.10;99.90
3360;DHT22;1693;49.602;11.046;2024-01-15T09:48:49;-0.10;99.90
3360;DHT22;1693;49.602;11.046;2024-01-15T09:51:18;-0.20;99.90
3360;DHT22;1693;49.602;11.046;2024-01-15T09:53:46;-0.10;99.90
3360;DHT22;1693;49.602;11.046;2024-01-15T09:56:14;0.00;99.90
3360;DHT22;1693;49.602;11.046;2024-01-15T09:58:42;-0.10;99.90
3360;DHT22;1693;49.602;11.046;2024-01-15T10:01:10;0.10;99.90
3360;DHT22;1693;49.602;11.046;2024-01-15T10:03:40;0.00;99.90
3360;DHT22;1693;49.602;11.046;2024-01-15T10:06:11;-0.10;99.90
3360;DHT22;1693;49.602;11.046;2024-01-15T10:08:43;-0.10;99.90
3360;DHT22;1693;49.602;11.046;2024-01-15T10:11:14;0.00;99.90
3360;DHT22;1693;49.602;11.046;2024-01-15T10:13:43;-0.20;99.90
3360;DHT22;1693;49.602;11.046;2024-01-15T10:16:09;-0.20;99.90
3360;DHT22;1693;49.602;11.046;2024-01-15T10:18:38;-0.10;99.90
3360;DHT22;1693;49.602;11.046;2024-01-15T10:21:06;-0.10;99.90
3360;DHT22;1693;49.602;11.046;2024-01-15T10:23:35;-0.10;99.90
3360;DHT22;1693;49.602;11.046;2024-01-15T10:26:03;-0.10;99.90
3360;DHT22;1693;49.602;11.046;2024-01-15T10:28:30;-0.20;99.90
3360;DHT22;1693;49.602;11.046;2024-01-15T10:30:59;0.00;99.90
3360;DHT22;1693;49.602;11.046;2024-01-15T10:33:26;0.20;99.90
3360;DHT22;1693;49.602;11.046;2024-01-15T10:35:54;0.20;99.90
3360;DHT22;1693;49.602;11.046;2024-01-15T10:38:22;0.20;99.90
3360;DHT22;1693;49.602;11.046;2024-01-15T10:40:53;0.20;99.90
3360;DHT22;1693;49.602;11.046;2024-01-15T10:43:20;0.30;99.90
3360;DHT22;1693;49.602;11.046;2024-01-15T10:45:49;0.20;99.90
3360;DHT22;1693;49.602;11.046;2024-01-15T10:48:18;0.20;99.90
3360;DHT22;1693;49.602;11.046;2024-01-15T10:50:47;0.30;99.90
3360;DHT22;1693;49.602;11.046;2024-01-15T10:53:15;0.10;99.90
3360;DHT22;1693;49.602;11.046;2024-01-15T10:55:43;0.20;99.90
3360;DHT22;1693;49.602;11.046;2024-01-15T10:58:13;0.20;99.90
3360;DHT22;1693;49.602;11.046;2024-01-15T11:00:42;0.10;99.90
3360;DHT22;1693;49.602;11.046;2024-01-15T11:03:10;0.10;99.90
3360;DHT22;1693;49.602;11.046;2024-01-15T11:05:38;0.10;99.90
3360;DHT22;1693;49.602;11.046;2024-01-15T11:08:06;0.10;99.90
3360;DHT22;1693;49.602;11.046;2024-01-15T11:10:40;0.10;99.90
3360;DHT22;1693;49.602;11.046;2024-01-15T11:13:14;0.30;99.90
3360;DHT22;1693;49.602;11.046;2024-01-15T11:15:58;0.30;99.90
3360;DHT22;1693;49.602;11.046;2024-01-15T11:18:27;0.30;99.90
3360;DHT22;1693;49.602;11.046;2024-01-15T11:24:33;0.40;99.90
3360;DHT22;1693;49.602;11.046;2024-01-15T11:27:00;0.50;99.90
3360;DHT22;1693;49.602;11.046;2024-01-15T11:29:33;0.50;99.90
3360;DHT22;1693;49.602;11.046;2024-01-15T11:32:05;0.60;99.90
3360;DHT22;1693;49.602;11.046;2024-01-15T11:34:58;0.60;99.90
3360;DHT22;1693;49.602;11.046;2024-01-15T11:37:28;0.50;99.90
3360;DHT22;1693;49.602;11.046;2024-01-15T11:39:56;0.30;99.90
3360;DHT22;1693;49.602;11.046;2024-01-15T11:42:28;0.40;99.90
3360;DHT22;1693;49.602;11.046;2024-01-15T11:44:57;0.40;99.90
3360;DHT22;1693;49.602;11.046;2024-01-15T11:47:58;0.30;99.90
3360;DHT22;1693;49.602;11.046;2024-01-15T11:50:31;0.30;99.90
3360;DHT22;1693;49.602;11.046;2024-01-15T11:53:01;0.30;99.90
3360;DHT22;1693;49.602;11.046;2024-01-15T11:55:33;0.40;99.90
3360;DHT22;1693;49.602;11.046;2024-01-15T11:58:01;0.40;99.90
3360;DHT22;1693;49.602;11.046;2024-01-15T12:00:30;0.30;99.90
3360;DHT22;1693;49.602;11.046;2024-01-15T12:02:58;0.50;99.90
3360;DHT22;1693;49.602;11.046;2024-01-15T12:05:27;0.50;99.90
3360;DHT22;1693;49.602;11.046;2024-01-15T12:07:56;0.50;99.90
3360;DHT22;1693;49.602;11.046;2024-01-15T12:10:23;0.40;99.90
3360;DHT22;1693;49.602;11.046;2024-01-15T12:12:57;0.40;99.90
3360;DHT22;1693;49.602;11.046;2024-01-15T12:15:25;0.50;99.90
3360;DHT22;1693;49.602;11.046;2024-01-15T12:17:55;0.40;99.90
3360;DHT22;1693;49.602;11.046;2024-01-15T12:20:23;0.40;99.90
3360;DHT22;1693;49.602;11.046;2024-01-15T12:23:03;0.40;99.90
3360;DHT22;1693;49.602;11.046;2024-01-15T12:25:34;0.40;99.90
3360;DHT22;1693;49.602;11.046;2024-01-15T12:28:02;0.40;99.90
3360;DHT22;1693;49.602;11.046;2024-01-15T12:30:35;0.30;99.90
3360;DHT22;1693;49.602;11.046;2024-01-15T12:33:30;0.30;99.90
3360;DHT22;1693;49.602;11.046;2024-01-15T12:35:57;0.40;99.90
3360;DHT22;1693;49.602;11.046;2024-01-15T12:38:24;0.30;99.90
3360;DHT22;1693;49.602;11.046;2024-01-15T12:40:51;0.40;99.90
3360;DHT22;1693;49.602;11.046;2024-01-15T12:43:18;0.40;99.90
3360;DHT22;1693;49.602;11.046;2024-01-15T12:45:46;0.50;99.90
3360;DHT22;1693;49.602;11.046;2024-01-15T12:48:13;0.50;99.90
3360;DHT22;1693;49.602;11.046;2024-01-15T12:50:44;0.60;99.90
3360;DHT22;1693;49.602;11.046;2024-01-15T12:53:13;0.40;99.90
3360;DHT22;1693;49.602;11.046;2024-01-15T12:55:41;0.50;99.90
3360;DHT22;1693;49.602;11.046;2024-01-15T12:58:08;0.60;99.90
3360;DHT22;1693;49.602;11.046;2024-01-15T13:00:36;0.80;99.90
3360;DHT22;1693;49.602;11.046;2024-01-15T13:03:07;0.80;99.90
3360;DHT22;1693;49.602;11.046;2024-01-15T13:05:34;0.70;99.90
3360;DHT22;1693;49.602;11.046;2024-01-15T13:08:06;0.60;99.90
3360;DHT22;1693;49.602;11.046;2024-01-15T13:10:33;0.60;99.90
3360;DHT22;1693;49.602;11.046;2024-01-15T13:13:00;0.60;99.90
3360;DHT22;1693;49.602;11.046;2024-01-15T13:15:27;0.60;99.90
3360;DHT22;1693;49.602;11.046;2024-01-15T13:17:54;0.60;99.90
3360;DHT22;1693;49.602;11.046;2024-01-15T13:20:21;0.30;99.90
3360;DHT22;1693;49.602;11.046;2024-01-15T13:22:49;0.40;99.90
3360;DHT22;1693;49.602;11.046;2024-01-15T13:25:17;0.50;99.90
3360;DHT22;1693;49.602;11.046;2024-01-15T13:27:44;0.30;99.90
3360;DHT22;1693;49.602;11.046;2024-01-15T13:30:13;0.20;99.90
3360;DHT22;1693;49.602;11.046;2024-01-15T13:32:41;0.30;99.90
3360;DHT22;1693;49.602;11.046;2024-01-15T13:35:09;0.30;99.90
3360;DHT22;1693;49.602;11.046;2024-01-15T13:37:38;0.30;99.90
3360;DHT22;1693;49.602;11.046;2024-01-15T13:40:08;0.30;99.90
3360;DHT22;1693;49.602;11.046;2024-01-15T13:42:43;0.20;99.90
3360;DHT22;1693;49.602;11.046;2024-01-15T13:45:10;0.20;99.90
3360;DHT22;1693;49.602;11.046;2024-01-15T13:47:40;0.10;99.90
3360;DHT22;1693;49.602;11.046;2024-01-15T13:50:09;0.20;99.90
3360;DHT22;1693;49.602;11.046;2024-01-15T13:52:37;0.20;99.90
3360;DHT22;1693;49.602;11.046;2024-01-15T13:55:06;0.30;99.90
3360;DHT22;1693;49.602;11.046;2024-01-15T13:57:48;0.30;99.90
3360;DHT22;1693;49.602;11.046;2024-01-15T14:00:16;0.20;99.90
3360;DHT22;1693;49.602;11.046;2024-01-15T14:02:44;0.10;99.90
3360;DHT22;1693;49.602;11.046;2024-01-15T14:05:12;0.10;99.90
3360;DHT22;1693;49.602;11.046;2024-01-15T14:07:40;0.10;99.90
3360;DHT22;1693;49.602;11.046;2024-01-15T14:10:08;0.00;99.90
3360;DHT22;1693;49.602;11.046;2024-01-15T14:12:36;0.00;99.90
3360;DHT22;1693;49.602;11.046;2024-01-15T14:15:05;0.00;99.90
3360;DHT22;1693;49.602;11.046;2024-01-15T14:17:33;0.00;99.90
3360;DHT22;1693;49.602;11.046;2024-01-15T14:20:00;0.00;99.90
3360;DHT22;1693;49.602;11.046;2024-01-15T14:22:27;0.20;99.90
3360;DHT22;1693;49.602;11.046;2024-01-15T14:24:55;0.30;99.90
3360;DHT22;1693;49.602;11.046;2024-01-15T14:27:22;0.40;99.90
3360;DHT22;1693;49.602;11.046;2024-01-15T14:29:49;0.30;99.90
3360;DHT22;1693;49.602;11.046;2024-01-15T14:32:17;0.30;99.90
3360;DHT22;1693;49.602;11.046;2024-01-15T14:34:45;0.30;99.90
3360;DHT22;1693;49.602;11.046;2024-01-15T14:37:12;0.30;99.90
3360;DHT22;1693;49.602;11.046;2024-01-15T14:39:39;0.20;99.90
3360;DHT22;1693;49.602;11.046;2024-01-15T14:42:06;0.20;99.90
3360;DHT22;1693;49.602;11.046;2024-01-15T14:44:33;0.20;99.90
3360;DHT22;1693;49.602;11.046;2024-01-15T14:47:00;0.20;99.90
3360;DHT22;1693;49.602;11.046;2024-01-15T14:49:30;0.20;99.90
3360;DHT22;1693;49.602;11.046;2024-01-15T14:51:57;0.00;99.90
3360;DHT22;1693;49.602;11.046;2024-01-15T14:54:24;0.00;99.90
3360;DHT22;1693;49.602;11.046;2024-01-15T14:56:51;0.10;99.90
3360;DHT22;1693;49.602;11.046;2024-01-15T14:59:19;0.00;99.90
3360;DHT22;1693;49.602;11.046;2024-01-15T15:01:46;0.10;99.90
3360;DHT22;1693;49.602;11.046;2024-01-15T15:04:13;0.10;99.90
3360;DHT22;1693;49.602;11.046;2024-01-15T15:06:41;0.10;99.90
3360;DHT22;1693;49.602;11.046;2024-01-15T15:09:09;0.10;99.90
3360;DHT22;1693;49.602;11.046;2024-01-15T15:11:37;0.10;99.90
3360;DHT22;1693;49.602;11.046;2024-01-15T15:14:04;0.00;99.90
3360;DHT22;1693;49.602;11.046;2024-01-15T15:16:31;0.00;99.90
3360;DHT22;1693;49.602;11.046;2024-01-15T15:18:59;-0.20;99.90
3360;DHT22;1693;49.602;11.046;2024-01-15T15:21:26;-0.10;99.90
3360;DHT22;1693;49.602;11.046;2024-01-15T15:23:57;-0.30;99.90
3360;DHT22;1693;49.602;11.046;2024-01-15T15:26:26;-0.20;99.90
3360;DHT22;1693;49.602;11.046;2024-01-15T15:28:53;-0.20;99.90
3360;DHT22;1693;49.602;11.046;2024-01-15T15:31:20;-0.20;99.90
3360;DHT22;1693;49.602;11.046;2024-01-15T15:33:47;-0.20;99.90
3360;DHT22;1693;49.602;11.046;2024-01-15T15:36:15;-0.20;99.90
3360;DHT22;1693;49.602;11.046;2024-01-15T15:38:42;-0.20;99.90
3360;DHT22;1693;49.602;11.046;2024-01-15T15:41:10;-0.20;99.90
3360;DHT22;1693;49.602;11.046;2024-01-15T15:43:37;-0.20;99.90
3360;DHT22;1693;49.602;11.046;2024-01-15T15:46:06;-0.20;99.90
3360;DHT22;1693;49.602;11.046;2024-01-15T15:48:33;-0.20;99.90
3360;DHT22;1693;49.602;11.046;2024-01-15T15:51:01;-0.10;99.90
3360;DHT22;1693;49.602;11.046;2024-01-15T15:53:28;-0.20;99.90
3360;DHT22;1693;49.602;11.046;2024-01-15T15:55:57;-0.20;99.90
3360;DHT22;1693;49.602;11.046;2024-01-15T15:58:28;-0.20;99.90
3360;DHT22;1693;49.602;11.046;2024-01-15T16:00:55;-0.10;99.90
3360;DHT22;1693;49.602;11.046;2024-01-15T16:03:23;-0.10;99.90
3360;DHT22;1693;49.602;11.046;2024-01-15T16:05:50;-0.20;99.90